sensor_id;sensor_type;location;lat;lon;timestamp;P1;durP1;ratioP1;P2;durP2;ratioP2
3953;SDS011;1991;48.682;9.030;2023-04-12T00:00:47;7.20;;;1.67;;
3953;SDS011;1991;48.682;9.030;2023-04-12T00:03:14;4.77;;;1.53;;
3953;SDS011;1991;48.682;9.030;2023-04-12T00:05:44;3.37;;;1.70;;
3953;SDS011;1991;48.682;9.030;2023-04-12T00:08:10;5.37;;;1.70;;
3953;SDS011;1991;48.682;9.030;2023-04-12T00:10:36;4.20;;;1.57;;
3953;SDS011;1991;48.682;9.030;2023-04-12T00:13:02;4.87;;;1.87;;
3953;SDS011;1991;48.682;9.030;2023-04-12T00:15:28;6.37;;;1.83;;
3953;SDS011;1991;48.682;9.030;2023-04-12T00:17:54;6.07;;;1.87;;
3953;SDS011;1991;48.682;9.030;2023-04-12T00:20:19;4.57;;;2.10;;
3953;SDS011;1991;48.682;9.030;2023-04-12T00:22:45;4.93;;;2.37;;
3953;SDS011;1991;48.682;9.030;2023-04-12T00:25:10;4.73;;;1.80;;
3953;SDS011;1991;48.682;9.030;2023-04-12T00:27:36;5.30;;;1.67;;
3953;SDS011;1991;48.682;9.030;2023-04-12T00:30:01;5.07;;;2.13;;
3953;SDS011;1991;48.682;9.030;2023-04-12T00:32:27;7.03;;;1.93;;
3953;SDS011;1991;48.682;9.030;2023-04-12T00:34:53;6.77;;;1.83;;
3953;SDS011;1991;48.682;9.030;2023-04-12T00:37:19;4.33;;;2.17;;
3953;SDS011;1991;48.682;9.030;2023-04-12T00:39:45;3.93;;;1.93;;
3953;SDS011;1991;48.682;9.030;2023-04-12T00:42:10;7.00;;;2.50;;
3953;SDS011;1991;48.682;9.030;2023-04-12T00:44:36;5.80;;;1.83;;
3953;SDS011;1991;48.682;9.030;2023-04-12T00:47:04;5.40;;;2.13;;
3953;SDS011;1991;48.682;9.030;2023-04-12T00:49:31;5.23;;;1.80;;
3953;SDS011;1991;48.682;9.030;2023-04-12T00:52:06;7.00;;;2.30;;
3953;SDS011;1991;48.682;9.030;2023-04-12T00:54:33;7.33;;;2.30;;
3953;SDS011;1991;48.682;9.030;2023-04-12T00:57:02;4.80;;;1.90;;
3953;SDS011;1991;48.682;9.030;2023-04-12T00:59:27;3.57;;;1.60;;
3953;SDS011;1991;48.682;9.030;2023-04-12T01:01:54;5.93;;;1.93;;
3953;SDS011;1991;48.682;9.030;2023-04-12T01:04:20;5.97;;;2.60;;
3953;SDS011;1991;48.682;9.030;2023-04-12T01:06:57;5.70;;;2.10;;
3953;SDS011;1991;48.682;9.030;2023-04-12T01:15:26;5.40;;;1.80;;
3953;SDS011;1991;48.682;9.030;2023-04-12T01:17:58;6.73;;;2.10;;
3953;SDS011;1991;48.682;9.030;2023-04-12T01:20:28;6.00;;;2.13;;
3953;SDS011;1991;48.682;9.030;2023-04-12T01:23:12;5.70;;;1.97;;
3953;SDS011;1991;48.682;9.030;2023-04-12T01:28:33;5.30;;;1.90;;
3953;SDS011;1991;48.682;9.030;2023-04-12T01:31:01;5.43;;;1.73;;
3953;SDS011;1991;48.682;9.030;2023-04-12T01:33:28;4.47;;;2.27;;
3953;SDS011;1991;48.682;9.030;2023-04-12T01:35:57;6.50;;;2.20;;
3953;SDS011;1991;48.682;9.030;2023-04-12T01:38:27;4.23;;;1.97;;
3953;SDS011;1991;48.682;9.030;2023-04-12T01:40:53;6.47;;;2.90;;
3953;SDS011;1991;48.682;9.030;2023-04-12T01:43:19;7.90;;;2.33;;
3953;SDS011;1991;48.682;9.030;2023-04-12T01:45:45;4.67;;;1.73;;
3953;SDS011;1991;48.682;9.030;2023-04-12T01:48:11;5.87;;;1.93;;
3953;SDS011;1991;48.682;9.030;2023-04-12T01:53:07;5.43;;;2.10;;
3953;SDS011;1991;48.682;9.030;2023-04-12T01:55:36;5.57;;;1.83;;
3953;SDS011;1991;48.682;9.030;2023-04-12T01:58:02;5.03;;;2.07;;
3953;SDS011;1991;48.682;9.030;2023-04-12T02:00:29;5.33;;;1.87;;
3953;SDS011;1991;48.682;9.030;2023-04-12T02:02:58;6.10;;;1.93;;
3953;SDS011;1991;48.682;9.030;2023-04-12T02:05:24;5.33;;;1.80;;
3953;SDS011;1991;48.682;9.030;2023-04-12T02:07:50;4.97;;;2.10;;
3953;SDS011;1991;48.682;9.030;2023-04-12T02:10:16;4.63;;;1.77;;
3953;SDS011;1991;48.682;9.030;2023-04-12T02:12:52;6.47;;;1.97;;
3953;SDS011;1991;48.682;9.030;2023-04-12T02:15:18;3.73;;;1.97;;
3953;SDS011;1991;48.682;9.030;2023-04-12T02:17:45;5.23;;;1.97;;
3953;SDS011;1991;48.682;9.030;2023-04-12T02:20:11;4.90;;;2.20;;
3953;SDS011;1991;48.682;9.030;2023-04-12T02:22:36;4.67;;;1.83;;
3953;SDS011;1991;48.682;9.030;2023-04-12T02:25:03;4.60;;;1.67;;
3953;SDS011;1991;48.682;9.030;2023-04-12T02:27:30;5.73;;;2.53;;
3953;SDS011;1991;48.682;9.030;2023-04-12T02:29:56;3.10;;;2.07;;
3953;SDS011;1991;48.682;9.030;2023-04-12T02:32:22;8.00;;;1.83;;
3953;SDS011;1991;48.682;9.030;2023-04-12T02:34:48;5.57;;;1.93;;
3953;SDS011;1991;48.682;9.030;2023-04-12T02:37:15;4.57;;;2.10;;
3953;SDS011;1991;48.682;9.030;2023-04-12T02:39:42;6.90;;;2.23;;
3953;SDS011;1991;48.682;9.030;2023-04-12T02:42:08;6.40;;;2.27;;
3953;SDS011;1991;48.682;9.030;2023-04-12T02:44:34;5.27;;;2.23;;
3953;SDS011;1991;48.682;9.030;2023-04-12T02:47:00;6.67;;;2.00;;
3953;SDS011;1991;48.682;9.030;2023-04-12T02:49:26;6.17;;;2.30;;
3953;SDS011;1991;48.682;9.030;2023-04-12T02:51:51;3.27;;;1.83;;
3953;SDS011;1991;48.682;9.030;2023-04-12T02:54:17;3.53;;;2.07;;
3953;SDS011;1991;48.682;9.030;2023-04-12T02:56:42;2.83;;;1.70;;
3953;SDS011;1991;48.682;9.030;2023-04-12T02:59:08;5.67;;;1.90;;
3953;SDS011;1991;48.682;9.030;2023-04-12T03:01:34;4.60;;;2.20;;
3953;SDS011;1991;48.682;9.030;2023-04-12T03:04:00;5.33;;;2.13;;
3953;SDS011;1991;48.682;9.030;2023-04-12T03:06:26;6.60;;;1.87;;
3953;SDS011;1991;48.682;9.030;2023-04-12T03:08:51;7.13;;;2.17;;
3953;SDS011;1991;48.682;9.030;2023-04-12T03:11:17;5.40;;;1.83;;
3953;SDS011;1991;48.682;9.030;2023-04-12T03:13:42;3.90;;;1.73;;
3953;SDS011;1991;48.682;9.030;2023-04-12T03:16:24;5.60;;;2.00;;
3953;SDS011;1991;48.682;9.030;2023-04-12T03:18:53;2.77;;;1.50;;
3953;SDS011;1991;48.682;9.030;2023-04-12T03:21:20;6.63;;;1.70;;
3953;SDS011;1991;48.682;9.030;2023-04-12T03:23:46;3.90;;;1.50;;
3953;SDS011;1991;48.682;9.030;2023-04-12T03:26:11;7.13;;;2.00;;
3953;SDS011;1991;48.682;9.030;2023-04-12T03:28:37;4.10;;;1.47;;
3953;SDS011;1991;48.682;9.030;2023-04-12T03:31:05;5.40;;;1.70;;
3953;SDS011;1991;48.682;9.030;2023-04-12T03:33:31;6.80;;;1.70;;
3953;SDS011;1991;48.682;9.030;2023-04-12T03:35:56;3.17;;;1.60;;
3953;SDS011;1991;48.682;9.030;2023-04-12T03:38:22;3.47;;;1.90;;
3953;SDS011;1991;48.682;9.030;2023-04-12T03:40:47;5.43;;;2.03;;
3953;SDS011;1991;48.682;9.030;2023-04-12T03:43:13;3.80;;;1.70;;
3953;SDS011;1991;48.682;9.030;2023-04-12T03:45:39;3.20;;;1.60;;
3953;SDS011;1991;48.682;9.030;2023-04-12T03:48:05;4.10;;;1.80;;
3953;SDS011;1991;48.682;9.030;2023-04-12T03:50:30;4.63;;;1.80;;
3953;SDS011;1991;48.682;9.030;2023-04-12T03:53:05;5.43;;;1.73;;
3953;SDS011;1991;48.682;9.030;2023-04-12T03:55:31;4.20;;;1.90;;
3953;SDS011;1991;48.682;9.030;2023-04-12T03:57:57;4.90;;;1.93;;
3953;SDS011;1991;48.682;9.030;2023-04-12T04:00:23;5.93;;;2.20;;
3953;SDS011;1991;48.682;9.030;2023-04-12T04:02:48;5.47;;;1.87;;
3953;SDS011;1991;48.682;9.030;2023-04-12T04:05:14;4.23;;;2.13;;
3953;SDS011;1991;48.682;9.030;2023-04-12T04:07:40;5.13;;;1.90;;
3953;SDS011;1991;48.682;9.030;2023-04-12T04:10:05;3.07;;;1.97;;
3953;SDS011;1991;48.682;9.030;2023-04-12T04:12:31;6.70;;;2.20;;
3953;SDS011;1991;48.682;9.030;2023-04-12T04:14:57;3.30;;;1.67;;
3953;SDS011;1991;48.682;9.030;2023-04-12T04:17:22;2.87;;;2.10;;
3953;SDS011;1991;48.682;9.030;2023-04-12T04:19:48;4.53;;;1.90;;
3953;SDS011;1991;48.682;9.030;2023-04-12T04:22:13;3.73;;;2.17;;
3953;SDS011;1991;48.682;9.030;2023-04-12T04:24:39;4.87;;;1.73;;
3953;SDS011;1991;48.682;9.030;2023-04-12T04:27:04;2.83;;;2.00;;
3953;SDS011;1991;48.682;9.030;2023-04-12T04:29:30;3.80;;;2.00;;
3953;SDS011;1991;48.682;9.030;2023-04-12T04:31:56;5.20;;;2.23;;
3953;SDS011;1991;48.682;9.030;2023-04-12T04:34:21;3.67;;;2.03;;
3953;SDS011;1991;48.682;9.030;2023-04-12T04:36:49;6.77;;;2.77;;
3953;SDS011;1991;48.682;9.030;2023-04-12T04:39:15;3.57;;;1.80;;
3953;SDS011;1991;48.682;9.030;2023-04-12T04:41:41;3.73;;;1.93;;
3953;SDS011;1991;48.682;9.030;2023-04-12T04:44:07;7.07;;;2.30;;
3953;SDS011;1991;48.682;9.030;2023-04-12T04:46:35;4.30;;;2.00;;
3953;SDS011;1991;48.682;9.030;2023-04-12T04:49:02;4.83;;;2.47;;
3953;SDS011;1991;48.682;9.030;2023-04-12T04:51:28;5.20;;;3.03;;
3953;SDS011;1991;48.682;9.030;2023-04-12T04:53:54;2.90;;;2.03;;
3953;SDS011;1991;48.682;9.030;2023-04-12T04:56:20;5.03;;;2.10;;
3953;SDS011;1991;48.682;9.030;2023-04-12T04:58:49;4.17;;;2.10;;
3953;SDS011;1991;48.682;9.030;2023-04-12T05:01:15;3.77;;;2.13;;
3953;SDS011;1991;48.682;9.030;2023-04-12T05:03:41;3.97;;;1.80;;
3953;SDS011;1991;48.682;9.030;2023-04-12T05:06:08;3.03;;;1.87;;
3953;SDS011;1991;48.682;9.030;2023-04-12T05:08:35;2.93;;;1.90;;
3953;SDS011;1991;48.682;9.030;2023-04-12T05:11:01;2.57;;;1.70;;
3953;SDS011;1991;48.682;9.030;2023-04-12T05:13:27;2.37;;;1.97;;
3953;SDS011;1991;48.682;9.030;2023-04-12T05:15:52;3.67;;;2.10;;
3953;SDS011;1991;48.682;9.030;2023-04-12T05:18:18;2.83;;;1.83;;
3953;SDS011;1991;48.682;9.030;2023-04-12T05:20:43;2.80;;;1.70;;
3953;SDS011;1991;48.682;9.030;2023-04-12T05:23:10;2.27;;;1.60;;
3953;SDS011;1991;48.682;9.030;2023-04-12T05:25:35;5.33;;;1.93;;
3953;SDS011;1991;48.682;9.030;2023-04-12T05:28:01;2.70;;;1.80;;
3953;SDS011;1991;48.682;9.030;2023-04-12T05:30:27;2.33;;;1.70;;
3953;SDS011;1991;48.682;9.030;2023-04-12T05:32:53;3.50;;;2.17;;
3953;SDS011;1991;48.682;9.030;2023-04-12T05:35:19;4.07;;;2.07;;
3953;SDS011;1991;48.682;9.030;2023-04-12T05:37:45;3.40;;;2.13;;
3953;SDS011;1991;48.682;9.030;2023-04-12T05:40:10;4.13;;;2.10;;
3953;SDS011;1991;48.682;9.030;2023-04-12T05:42:36;3.90;;;2.03;;
3953;SDS011;1991;48.682;9.030;2023-04-12T05:45:02;4.27;;;2.43;;
3953;SDS011;1991;48.682;9.030;2023-04-12T05:47:28;2.57;;;1.73;;
3953;SDS011;1991;48.682;9.030;2023-04-12T05:49:54;3.70;;;2.10;;
3953;SDS011;1991;48.682;9.030;2023-04-12T05:52:19;2.90;;;1.90;;
3953;SDS011;1991;48.682;9.030;2023-04-12T05:54:45;3.77;;;2.20;;
3953;SDS011;1991;48.682;9.030;2023-04-12T05:57:11;2.97;;;1.80;;
3953;SDS011;1991;48.682;9.030;2023-04-12T05:59:36;2.23;;;1.77;;
3953;SDS011;1991;48.682;9.030;2023-04-12T06:02:02;4.67;;;1.90;;
3953;SDS011;1991;48.682;9.030;2023-04-12T06:04:28;2.80;;;1.67;;
3953;SDS011;1991;48.682;9.030;2023-04-12T06:06:54;2.57;;;1.80;;
3953;SDS011;1991;48.682;9.030;2023-04-12T06:09:20;2.40;;;1.60;;
3953;SDS011;1991;48.682;9.030;2023-04-12T06:11:46;2.97;;;1.90;;
3953;SDS011;1991;48.682;9.030;2023-04-12T06:14:11;3.37;;;1.70;;
3953;SDS011;1991;48.682;9.030;2023-04-12T06:16:37;3.13;;;1.80;;
3953;SDS011;1991;48.682;9.030;2023-04-12T06:19:02;2.60;;;1.90;;
3953;SDS011;1991;48.682;9.030;2023-04-12T06:21:29;2.93;;;2.00;;
3953;SDS011;1991;48.682;9.030;2023-04-12T06:23:54;3.60;;;1.77;;
3953;SDS011;1991;48.682;9.030;2023-04-12T06:26:20;2.67;;;1.80;;
3953;SDS011;1991;48.682;9.030;2023-04-12T06:28:46;3.53;;;1.80;;
3953;SDS011;1991;48.682;9.030;2023-04-12T06:31:11;4.13;;;1.80;;
3953;SDS011;1991;48.682;9.030;2023-04-12T06:33:37;2.97;;;1.73;;
3953;SDS011;1991;48.682;9.030;2023-04-12T06:36:02;3.80;;;1.83;;
3953;SDS011;1991;48.682;9.030;2023-04-12T06:38:28;4.17;;;1.83;;
3953;SDS011;1991;48.682;9.030;2023-04-12T06:40:54;3.30;;;1.70;;
3953;SDS011;1991;48.682;9.030;2023-04-12T06:43:19;2.00;;;1.70;;
3953;SDS011;1991;48.682;9.030;2023-04-12T06:45:46;2.47;;;1.97;;
3953;SDS011;1991;48.682;9.030;2023-04-12T06:48:14;2.37;;;1.77;;
3953;SDS011;1991;48.682;9.030;2023-04-12T06:50:39;3.60;;;2.33;;
3953;SDS011;1991;48.682;9.030;2023-04-12T06:53:05;4.17;;;2.10;;
3953;SDS011;1991;48.682;9.030;2023-04-12T06:55:31;4.83;;;2.17;;
3953;SDS011;1991;48.682;9.030;2023-04-12T06:57:57;2.40;;;1.77;;
3953;SDS011;1991;48.682;9.030;2023-04-12T07:00:22;3.83;;;1.83;;
3953;SDS011;1991;48.682;9.030;2023-04-12T07:02:48;3.20;;;2.40;;
3953;SDS011;1991;48.682;9.030;2023-04-12T07:05:13;4.87;;;1.80;;
3953;SDS011;1991;48.682;9.030;2023-04-12T07:07:39;2.80;;;1.90;;
3953;SDS011;1991;48.682;9.030;2023-04-12T07:10:05;2.67;;;1.83;;
3953;SDS011;1991;48.682;9.030;2023-04-12T07:12:31;3.33;;;1.60;;
3953;SDS011;1991;48.682;9.030;2023-04-12T07:14:57;1.90;;;1.53;;
3953;SDS011;1991;48.682;9.030;2023-04-12T07:17:23;5.33;;;2.27;;
3953;SDS011;1991;48.682;9.030;2023-04-12T07:19:50;4.60;;;1.87;;
3953;SDS011;1991;48.682;9.030;2023-04-12T07:22:17;3.83;;;1.97;;
3953;SDS011;1991;48.682;9.030;2023-04-12T07:24:43;2.80;;;1.80;;
3953;SDS011;1991;48.682;9.030;2023-04-12T07:27:08;2.17;;;1.50;;
3953;SDS011;1991;48.682;9.030;2023-04-12T07:29:35;3.17;;;1.70;;
3953;SDS011;1991;48.682;9.030;2023-04-12T07:32:01;3.27;;;1.40;;
3953;SDS011;1991;48.682;9.030;2023-04-12T07:34:27;4.10;;;1.87;;
3953;SDS011;1991;48.682;9.030;2023-04-12T07:36:53;1.80;;;1.60;;
3953;SDS011;1991;48.682;9.030;2023-04-12T07:39:18;2.37;;;1.50;;
3953;SDS011;1991;48.682;9.030;2023-04-12T07:41:44;4.27;;;1.40;;
3953;SDS011;1991;48.682;9.030;2023-04-12T07:44:10;4.00;;;1.50;;
3953;SDS011;1991;48.682;9.030;2023-04-12T07:46:37;3.40;;;1.40;;
3953;SDS011;1991;48.682;9.030;2023-04-12T07:49:02;3.07;;;1.60;;
3953;SDS011;1991;48.682;9.030;2023-04-12T07:51:28;1.93;;;1.33;;
3953;SDS011;1991;48.682;9.030;2023-04-12T07:53:55;3.27;;;1.63;;
3953;SDS011;1991;48.682;9.030;2023-04-12T07:56:20;7.10;;;2.00;;
3953;SDS011;1991;48.682;9.030;2023-04-12T07:58:46;2.43;;;1.47;;
3953;SDS011;1991;48.682;9.030;2023-04-12T08:01:13;2.50;;;1.57;;
3953;SDS011;1991;48.682;9.030;2023-04-12T08:03:40;4.13;;;1.80;;
3953;SDS011;1991;48.682;9.030;2023-04-12T08:06:05;2.40;;;1.70;;
3953;SDS011;1991;48.682;9.030;2023-04-12T08:08:32;2.37;;;1.50;;
3953;SDS011;1991;48.682;9.030;2023-04-12T08:10:57;2.73;;;1.97;;
3953;SDS011;1991;48.682;9.030;2023-04-12T08:13:24;3.90;;;2.00;;
3953;SDS011;1991;48.682;9.030;2023-04-12T08:15:50;3.27;;;1.50;;
3953;SDS011;1991;48.682;9.030;2023-04-12T08:18:16;4.30;;;1.43;;
3953;SDS011;1991;48.682;9.030;2023-04-12T08:20:41;2.77;;;1.57;;
3953;SDS011;1991;48.682;9.030;2023-04-12T08:23:11;2.00;;;1.40;;
3953;SDS011;1991;48.682;9.030;2023-04-12T08:25:37;5.47;;;1.63;;
3953;SDS011;1991;48.682;9.030;2023-04-12T08:28:03;3.77;;;1.83;;
3953;SDS011;1991;48.682;9.030;2023-04-12T08:30:29;3.53;;;1.63;;
3953;SDS011;1991;48.682;9.030;2023-04-12T08:32:55;2.93;;;1.80;;
3953;SDS011;1991;48.682;9.030;2023-04-12T08:35:20;2.27;;;1.10;;
3953;SDS011;1991;48.682;9.030;2023-04-12T08:37:47;3.63;;;1.63;;
3953;SDS011;1991;48.682;9.030;2023-04-12T08:40:13;2.67;;;1.40;;
3953;SDS011;1991;48.682;9.030;2023-04-12T08:42:38;5.30;;;1.40;;
3953;SDS011;1991;48.682;9.030;2023-04-12T08:45:08;2.90;;;1.20;;
3953;SDS011;1991;48.682;9.030;2023-04-12T08:47:41;3.47;;;1.53;;
3953;SDS011;1991;48.682;9.030;2023-04-12T08:50:08;2.90;;;1.20;;
3953;SDS011;1991;48.682;9.030;2023-04-12T08:52:37;3.90;;;1.53;;
3953;SDS011;1991;48.682;9.030;2023-04-12T08:55:07;4.27;;;1.60;;
3953;SDS011;1991;48.682;9.030;2023-04-12T08:57:34;2.77;;;1.40;;
3953;SDS011;1991;48.682;9.030;2023-04-12T09:00:01;5.67;;;1.70;;
3953;SDS011;1991;48.682;9.030;2023-04-12T09:02:28;2.13;;;1.40;;
3953;SDS011;1991;48.682;9.030;2023-04-12T09:04:54;3.67;;;1.60;;
3953;SDS011;1991;48.682;9.030;2023-04-12T09:07:19;4.30;;;1.70;;
3953;SDS011;1991;48.682;9.030;2023-04-12T09:09:51;6.37;;;1.53;;
3953;SDS011;1991;48.682;9.030;2023-04-12T09:12:17;3.83;;;1.53;;
3953;SDS011;1991;48.682;9.030;2023-04-12T09:14:46;6.40;;;2.03;;
3953;SDS011;1991;48.682;9.030;2023-04-12T09:17:21;3.50;;;1.80;;
3953;SDS011;1991;48.682;9.030;2023-04-12T09:19:48;2.43;;;1.70;;
3953;SDS011;1991;48.682;9.030;2023-04-12T09:22:14;4.40;;;1.67;;
3953;SDS011;1991;48.682;9.030;2023-04-12T09:24:46;4.60;;;1.70;;
3953;SDS011;1991;48.682;9.030;2023-04-12T09:27:14;2.73;;;2.00;;
3953;SDS011;1991;48.682;9.030;2023-04-12T09:29:40;4.83;;;2.10;;
3953;SDS011;1991;48.682;9.030;2023-04-12T09:32:06;5.17;;;1.90;;
3953;SDS011;1991;48.682;9.030;2023-04-12T09:34:33;4.97;;;2.03;;
3953;SDS011;1991;48.682;9.030;2023-04-12T09:37:12;3.90;;;1.93;;
3953;SDS011;1991;48.682;9.030;2023-04-12T09:39:39;3.83;;;1.60;;
3953;SDS011;1991;48.682;9.030;2023-04-12T09:42:06;2.30;;;1.30;;
3953;SDS011;1991;48.682;9.030;2023-04-12T09:44:33;4.43;;;1.67;;
3953;SDS011;1991;48.682;9.030;2023-04-12T09:46:59;5.43;;;1.80;;
3953;SDS011;1991;48.682;9.030;2023-04-12T09:49:35;2.03;;;1.60;;
3953;SDS011;1991;48.682;9.030;2023-04-12T09:52:08;4.37;;;1.87;;
3953;SDS011;1991;48.682;9.030;2023-04-12T09:54:44;5.43;;;2.13;;
3953;SDS011;1991;48.682;9.030;2023-04-12T09:57:12;4.33;;;1.60;;
3953;SDS011;1991;48.682;9.030;2023-04-12T09:59:40;2.73;;;1.50;;
3953;SDS011;1991;48.682;9.030;2023-04-12T10:02:15;3.20;;;1.70;;
3953;SDS011;1991;48.682;9.030;2023-04-12T10:04:42;2.67;;;1.57;;
3953;SDS011;1991;48.682;9.030;2023-04-12T10:07:08;3.30;;;1.70;;
3953;SDS011;1991;48.682;9.030;2023-04-12T10:09:37;4.27;;;2.07;;
3953;SDS011;1991;48.682;9.030;2023-04-12T10:12:04;3.60;;;1.47;;
3953;SDS011;1991;48.682;9.030;2023-04-12T10:14:31;5.43;;;1.70;;
3953;SDS011;1991;48.682;9.030;2023-04-12T10:16:57;5.40;;;1.80;;
3953;SDS011;1991;48.682;9.030;2023-04-12T10:19:24;6.63;;;2.00;;
3953;SDS011;1991;48.682;9.030;2023-04-12T10:21:52;2.27;;;1.67;;
3953;SDS011;1991;48.682;9.030;2023-04-12T10:24:21;3.73;;;1.67;;
3953;SDS011;1991;48.682;9.030;2023-04-12T10:26:47;4.20;;;1.60;;
3953;SDS011;1991;48.682;9.030;2023-04-12T10:29:21;2.90;;;1.53;;
3953;SDS011;1991;48.682;9.030;2023-04-12T10:31:49;4.70;;;1.53;;
3953;SDS011;1991;48.682;9.030;2023-04-12T10:34:15;4.67;;;1.40;;
3953;SDS011;1991;48.682;9.030;2023-04-12T10:36:56;3.40;;;1.83;;
3953;SDS011;1991;48.682;9.030;2023-04-12T10:39:39;4.83;;;1.67;;
3953;SDS011;1991;48.682;9.030;2023-04-12T10:42:16;3.53;;;1.63;;
3953;SDS011;1991;48.682;9.030;2023-04-12T10:44:43;3.03;;;1.40;;
3953;SDS011;1991;48.682;9.030;2023-04-12T10:47:09;3.23;;;1.30;;
3953;SDS011;1991;48.682;9.030;2023-04-12T10:49:35;3.47;;;1.40;;
3953;SDS011;1991;48.682;9.030;2023-04-12T10:54:34;5.47;;;1.60;;
3953;SDS011;1991;48.682;9.030;2023-04-12T10:57:01;2.57;;;1.17;;
3953;SDS011;1991;48.682;9.030;2023-04-12T11:02:16;2.37;;;1.07;;
3953;SDS011;1991;48.682;9.030;2023-04-12T11:07:38;3.07;;;1.33;;
3953;SDS011;1991;48.682;9.030;2023-04-12T11:10:11;2.43;;;0.97;;
3953;SDS011;1991;48.682;9.030;2023-04-12T11:12:40;1.87;;;0.90;;
3953;SDS011;1991;48.682;9.030;2023-04-12T11:15:11;2.60;;;0.80;;
3953;SDS011;1991;48.682;9.030;2023-04-12T11:17:37;2.77;;;1.23;;
3953;SDS011;1991;48.682;9.030;2023-04-12T11:20:03;3.20;;;1.17;;
3953;SDS011;1991;48.682;9.030;2023-04-12T11:22:34;2.87;;;0.83;;
3953;SDS011;1991;48.682;9.030;2023-04-12T11:25:00;1.67;;;1.00;;
3953;SDS011;1991;48.682;9.030;2023-04-12T11:27:27;1.37;;;0.87;;
3953;SDS011;1991;48.682;9.030;2023-04-12T11:29:54;1.57;;;1.10;;
3953;SDS011;1991;48.682;9.030;2023-04-12T11:32:22;2.00;;;0.70;;
3953;SDS011;1991;48.682;9.030;2023-04-12T11:34:53;2.20;;;1.00;;
3953;SDS011;1991;48.682;9.030;2023-04-12T11:37:20;2.13;;;0.90;;
3953;SDS011;1991;48.682;9.030;2023-04-12T11:39:51;3.63;;;1.03;;
3953;SDS011;1991;48.682;9.030;2023-04-12T11:42:18;2.53;;;1.00;;
3953;SDS011;1991;48.682;9.030;2023-04-12T11:44:45;3.63;;;1.17;;
3953;SDS011;1991;48.682;9.030;2023-04-12T11:47:12;4.80;;;1.13;;
3953;SDS011;1991;48.682;9.030;2023-04-12T11:49:43;2.03;;;0.77;;
3953;SDS011;1991;48.682;9.030;2023-04-12T11:52:19;4.63;;;0.95;;
3953;SDS011;1991;48.682;9.030;2023-04-12T11:54:46;2.00;;;0.90;;
3953;SDS011;1991;48.682;9.030;2023-04-12T11:57:14;2.15;;;0.82;;
3953;SDS011;1991;48.682;9.030;2023-04-12T11:59:43;0.77;;;0.60;;
3953;SDS011;1991;48.682;9.030;2023-04-12T12:02:11;2.37;;;1.53;;
3953;SDS011;1991;48.682;9.030;2023-04-12T12:04:38;2.50;;;0.80;;
3953;SDS011;1991;48.682;9.030;2023-04-12T12:07:11;1.90;;;0.67;;
3953;SDS011;1991;48.682;9.030;2023-04-12T12:09:39;2.33;;;0.67;;
3953;SDS011;1991;48.682;9.030;2023-04-12T12:12:05;1.47;;;0.67;;
3953;SDS011;1991;48.682;9.030;2023-04-12T12:14:32;2.37;;;0.87;;
3953;SDS011;1991;48.682;9.030;2023-04-12T12:17:00;1.60;;;0.77;;
3953;SDS011;1991;48.682;9.030;2023-04-12T12:19:34;2.30;;;0.83;;
3953;SDS011;1991;48.682;9.030;2023-04-12T12:22:11;1.00;;;0.57;;
3953;SDS011;1991;48.682;9.030;2023-04-12T12:24:45;2.27;;;0.70;;
3953;SDS011;1991;48.682;9.030;2023-04-12T12:27:11;1.30;;;0.63;;
3953;SDS011;1991;48.682;9.030;2023-04-12T12:29:37;1.07;;;0.77;;
3953;SDS011;1991;48.682;9.030;2023-04-12T12:32:13;2.20;;;0.70;;
3953;SDS011;1991;48.682;9.030;2023-04-12T12:34:39;1.50;;;0.73;;
3953;SDS011;1991;48.682;9.030;2023-04-12T12:37:11;1.02;;;0.70;;
3953;SDS011;1991;48.682;9.030;2023-04-12T12:39:37;2.22;;;0.80;;
3953;SDS011;1991;48.682;9.030;2023-04-12T12:42:03;2.10;;;0.68;;
3953;SDS011;1991;48.682;9.030;2023-04-12T12:44:30;2.50;;;0.70;;
3953;SDS011;1991;48.682;9.030;2023-04-12T12:47:00;1.27;;;0.68;;
3953;SDS011;1991;48.682;9.030;2023-04-12T12:49:26;3.27;;;0.77;;
3953;SDS011;1991;48.682;9.030;2023-04-12T12:51:52;1.93;;;0.73;;
3953;SDS011;1991;48.682;9.030;2023-04-12T12:54:17;1.63;;;0.60;;
3953;SDS011;1991;48.682;9.030;2023-04-12T12:56:43;2.08;;;0.73;;
3953;SDS011;1991;48.682;9.030;2023-04-12T12:59:10;2.33;;;0.70;;
3953;SDS011;1991;48.682;9.030;2023-04-12T13:01:36;1.30;;;0.63;;
3953;SDS011;1991;48.682;9.030;2023-04-12T13:04:01;2.20;;;0.70;;
3953;SDS011;1991;48.682;9.030;2023-04-12T13:06:27;1.80;;;0.90;;
3953;SDS011;1991;48.682;9.030;2023-04-12T13:08:53;2.65;;;0.82;;
3953;SDS011;1991;48.682;9.030;2023-04-12T13:11:19;1.90;;;0.75;;
3953;SDS011;1991;48.682;9.030;2023-04-12T13:13:45;1.10;;;0.93;;
3953;SDS011;1991;48.682;9.030;2023-04-12T13:16:10;2.37;;;0.63;;
3953;SDS011;1991;48.682;9.030;2023-04-12T13:18:36;2.77;;;0.73;;
3953;SDS011;1991;48.682;9.030;2023-04-12T13:21:02;1.83;;;0.60;;
3953;SDS011;1991;48.682;9.030;2023-04-12T13:23:29;2.40;;;0.70;;
3953;SDS011;1991;48.682;9.030;2023-04-12T13:25:54;1.93;;;0.80;;
3953;SDS011;1991;48.682;9.030;2023-04-12T13:28:20;2.17;;;0.73;;
3953;SDS011;1991;48.682;9.030;2023-04-12T13:30:45;2.67;;;0.63;;
3953;SDS011;1991;48.682;9.030;2023-04-12T13:33:12;2.70;;;1.17;;
3953;SDS011;1991;48.682;9.030;2023-04-12T13:35:38;1.17;;;0.60;;
3953;SDS011;1991;48.682;9.030;2023-04-12T13:38:03;2.03;;;0.57;;
3953;SDS011;1991;48.682;9.030;2023-04-12T13:40:29;1.40;;;0.60;;
3953;SDS011;1991;48.682;9.030;2023-04-12T13:42:55;1.70;;;0.63;;
3953;SDS011;1991;48.682;9.030;2023-04-12T13:45:20;0.75;;;0.30;;
3953;SDS011;1991;48.682;9.030;2023-04-12T13:47:46;1.50;;;0.68;;
3953;SDS011;1991;48.682;9.030;2023-04-12T13:50:12;1.58;;;0.50;;
3953;SDS011;1991;48.682;9.030;2023-04-12T13:52:37;2.53;;;0.50;;
3953;SDS011;1991;48.682;9.030;2023-04-12T13:55:03;0.37;;;0.30;;
3953;SDS011;1991;48.682;9.030;2023-04-12T13:57:32;3.13;;;0.70;;
3953;SDS011;1991;48.682;9.030;2023-04-12T13:59:58;0.87;;;0.50;;
3953;SDS011;1991;48.682;9.030;2023-04-12T14:02:23;1.85;;;0.70;;
3953;SDS011;1991;48.682;9.030;2023-04-12T14:04:50;1.57;;;0.67;;
3953;SDS011;1991;48.682;9.030;2023-04-12T14:07:16;3.03;;;0.50;;
3953;SDS011;1991;48.682;9.030;2023-04-12T14:09:42;1.23;;;0.40;;
3953;SDS011;1991;48.682;9.030;2023-04-12T14:12:08;1.50;;;0.80;;
3953;SDS011;1991;48.682;9.030;2023-04-12T14:14:34;0.45;;;0.40;;
3953;SDS011;1991;48.682;9.030;2023-04-12T14:17:00;1.27;;;0.50;;
3953;SDS011;1991;48.682;9.030;2023-04-12T14:19:25;1.15;;;0.50;;
3953;SDS011;1991;48.682;9.030;2023-04-12T14:21:51;1.37;;;0.60;;
3953;SDS011;1991;48.682;9.030;2023-04-12T14:24:17;2.08;;;0.60;;
3953;SDS011;1991;48.682;9.030;2023-04-12T14:26:44;2.00;;;0.45;;
3953;SDS011;1991;48.682;9.030;2023-04-12T14:29:10;2.05;;;0.63;;
3953;SDS011;1991;48.682;9.030;2023-04-12T14:31:36;1.42;;;0.43;;
3953;SDS011;1991;48.682;9.030;2023-04-12T14:34:02;1.85;;;0.60;;
3953;SDS011;1991;48.682;9.030;2023-04-12T14:36:28;1.83;;;0.57;;
3953;SDS011;1991;48.682;9.030;2023-04-12T14:38:55;1.33;;;0.57;;
3953;SDS011;1991;48.682;9.030;2023-04-12T14:41:21;0.85;;;0.40;;
3953;SDS011;1991;48.682;9.030;2023-04-12T14:43:47;2.08;;;0.20;;
3953;SDS011;1991;48.682;9.030;2023-04-12T14:46:15;1.20;;;0.60;;
3953;SDS011;1991;48.682;9.030;2023-04-12T14:48:41;2.63;;;0.40;;
3953;SDS011;1991;48.682;9.030;2023-04-12T14:51:07;0.80;;;0.40;;
3953;SDS011;1991;48.682;9.030;2023-04-12T14:53:32;0.88;;;0.50;;
3953;SDS011;1991;48.682;9.030;2023-04-12T14:55:58;1.23;;;0.40;;
3953;SDS011;1991;48.682;9.030;2023-04-12T14:58:26;0.70;;;0.50;;
3953;SDS011;1991;48.682;9.030;2023-04-12T15:00:53;1.02;;;0.50;;
3953;SDS011;1991;48.682;9.030;2023-04-12T15:03:24;4.80;;;0.50;;
3953;SDS011;1991;48.682;9.030;2023-04-12T15:05:50;1.80;;;0.52;;
3953;SDS011;1991;48.682;9.030;2023-04-12T15:08:16;0.95;;;0.50;;
3953;SDS011;1991;48.682;9.030;2023-04-12T15:10:41;3.03;;;0.60;;
3953;SDS011;1991;48.682;9.030;2023-04-12T15:13:08;0.80;;;0.45;;
3953;SDS011;1991;48.682;9.030;2023-04-12T15:15:34;1.58;;;0.80;;
3953;SDS011;1991;48.682;9.030;2023-04-12T15:18:00;2.80;;;0.60;;
3953;SDS011;1991;48.682;9.030;2023-04-12T15:20:27;2.90;;;0.40;;
3953;SDS011;1991;48.682;9.030;2023-04-12T15:22:52;2.20;;;0.20;;
3953;SDS011;1991;48.682;9.030;2023-04-12T15:25:18;1.30;;;0.10;;
3953;SDS011;1991;48.682;9.030;2023-04-12T15:27:45;1.17;;;0.27;;
3953;SDS011;1991;48.682;9.030;2023-04-12T15:30:11;0.57;;;0.30;;
3953;SDS011;1991;48.682;9.030;2023-04-12T15:32:39;0.50;;;0.30;;